Time;durP1;ratioP1;P1;durP2;ratioP2;P2;SDS_P1;SDS_P2;PMS_P1;PMS_P2;Temp;Humidity;BMP_temperature;BMP_pressure;BME280_temperature;BME280_humidity;BME280_pressure;Samples;Min_cycle;Max_cycle;Signal;HPM_P1;HPM_P2
2021/12/29 00:01:01;;;;;;;31.15;12.40;;;;;;;-5.14;100.00;97613.47;4302292;33;20088;-75
2021/12/29 00:03:28;;;;;;;27.35;12.57;;;;;;;-4.97;100.00;97610.59;4297634;33;20053;-76
2021/12/29 00:05:55;;;;;;;33.03;14.35;;;;;;;-5.07;100.00;97607.44;4284662;33;20069;-73
2021/12/29 00:08:22;;;;;;;32.10;12.05;;;;;;;-5.09;100.00;97610.25;4302425;33;20060;-73
2021/12/29 00:10:55;;;;;;;34.70;16.48;;;;;;;-5.08;100.00;97616.34;4289643;33;20365;-74
2021/12/29 00:13:25;;;;;;;32.60;15.25;;;;;;;-5.15;100.00;97596.06;4299815;33;20055;-74
2021/12/29 00:16:00;;;;;;;33.75;13.62;;;;;;;-5.14;100.00;97602.97;4297284;33;20456;-73
2021/12/29 00:18:28;;;;;;;34.60;13.38;;;;;;;-5.11;100.00;97601.75;4302171;33;20079;-74
2021/12/29 00:20:57;;;;;;;31.30;14.50;;;;;;;-5.05;100.00;97605.47;4293771;33;20062;-73
2021/12/29 00:23:24;;;;;;;35.95;14.32;;;;;;;-5.22;100.00;97595.16;4283598;33;20059;-73
2021/12/29 00:25:51;;;;;;;36.13;16.00;;;;;;;-5.15;100.00;97606.56;4289113;33;20111;-73
2021/12/29 00:28:18;;;;;;;30.40;13.70;;;;;;;-5.15;100.00;97606.56;4298074;33;20042;-73
2021/12/29 00:30:45;;;;;;;44.97;18.83;;;;;;;-5.37;100.00;97565.53;4298437;33;20062;-75
2021/12/29 00:33:21;;;;;;;35.45;15.50;;;;;;;-5.50;100.00;97574.88;4278954;33;20085;-75
2021/12/29 00:35:54;;;;;;;33.63;15.48;;;;;;;-5.26;100.00;97620.16;4284758;33;20057;-73
2021/12/29 00:38:27;;;;;;;36.20;15.65;;;;;;;-5.23;100.00;97617.19;4280699;33;20034;-73
2021/12/29 00:40:59;;;;;;;;;;;;;;;-5.16;100.00;97604.94;4300941;33;20342;-74
2021/12/29 00:43:35;;;;;;;32.30;15.20;;;;;;;-5.10;100.00;97611.28;4311875;33;19953;-74
2021/12/29 00:46:07;;;;;;;38.45;16.80;;;;;;;-5.26;100.00;97593.13;4312129;33;20432;-73
2021/12/29 00:48:38;;;;;;;23.08;10.23;;;;;;;-5.44;100.00;97580.38;4312026;33;20054;-73
2021/12/29 00:51:06;;;;;;;31.80;13.77;;;;;;;-5.13;100.00;97588.81;4311633;33;20474;-74
2021/12/29 00:53:33;;;;;;;34.17;15.85;;;;;;;-5.45;100.00;97560.41;4312743;33;20041;-74
2021/12/29 00:56:00;;;;;;;45.95;19.30;;;;;;;-5.49;100.00;97560.78;4312691;33;20044;-73
2021/12/29 00:58:27;;;;;;;14.30;5.62;;;;;;;-5.26;100.00;97614.13;4296972;33;20044;-73
2021/12/29 01:00:53;;;;;;;38.60;14.90;;;;;;;-5.17;100.00;97607.75;4296514;33;20037;-73
2021/12/29 01:03:20;;;;;;;36.13;15.70;;;;;;;-5.44;100.00;97565.47;4291668;33;20063;-75
2021/12/29 01:05:47;;;;;;;36.90;14.60;;;;;;;-5.23;100.00;97593.56;4293803;33;20061;-73
2021/12/29 01:08:13;;;;;;;30.77;14.68;;;;;;;-5.26;100.00;97583.44;4297670;33;20492;-73
2021/12/29 01:10:41;;;;;;;20.73;7.47;;;;;;;-5.53;100.00;97540.31;4306900;33;20062;-73
2021/12/29 01:13:11;;;;;;;36.92;16.35;;;;;;;-5.44;100.00;97530.53;4297332;33;20049;-75
2021/12/29 01:15:57;;;;;;;13.57;7.72;;;;;;;-5.25;100.00;97573.75;4296924;33;20195;-73
2021/12/29 01:18:27;;;;;;;40.72;14.70;;;;;;;-5.21;100.00;97570.56;4291910;33;20045;-73
2021/12/29 01:20:54;;;;;;;30.65;11.25;;;;;;;-5.15;100.00;97566.41;4296834;33;20060;-74
2021/12/29 01:23:21;;;;;;;36.88;16.40;;;;;;;-5.41;100.00;97522.28;4296173;33;20095;-73
2021/12/29 01:25:48;;;;;;;32.50;16.17;;;;;;;-5.19;100.00;97565.94;4298181;33;20332;-73
2021/12/29 01:28:15;;;;;;;32.97;14.30;;;;;;;-5.32;100.00;97542.19;4298489;33;20433;-73
2021/12/29 01:30:43;;;;;;;34.65;15.13;;;;;;;-5.39;100.00;97517.66;4275924;33;20131;-73
2021/12/29 01:33:10;;;;;;;36.08;15.27;;;;;;;-5.32;100.00;97542.19;4294908;33;20029;-75
2021/12/29 01:35:38;;;;;;;39.67;16.75;;;;;;;-5.23;100.00;97541.06;4301437;33;20186;-72
2021/12/29 01:38:05;;;;;;;20.58;9.68;;;;;;;-5.57;100.00;97502.34;4298733;33;20062;-74
2021/12/29 01:40:35;;;;;;;40.42;17.87;;;;;;;-5.22;100.00;97531.37;4297862;33;20050;-73
2021/12/29 01:43:08;;;;;;;39.05;15.45;;;;;;;-5.33;100.00;97536.12;4298015;33;20084;-75
2021/12/29 01:45:35;;;;;;;24.10;9.57;;;;;;;-5.63;100.00;97482.94;4309111;33;20075;-74
2021/12/29 01:48:03;;;;;;;29.37;12.60;;;;;;;-5.63;100.00;97501.28;4297772;33;20102;-73
2021/12/29 01:50:31;;;;;;;34.15;13.57;;;;;;;-5.37;100.00;97542.72;4296877;33;20037;-73
2021/12/29 01:53:03;;;;;;;33.75;16.23;;;;;;;-5.32;100.00;97547.44;4306420;33;20387;-73
2021/12/29 01:55:31;;;;;;;35.13;17.23;;;;;;;-5.42;100.00;97552.16;4311400;33;20154;-73
2021/12/29 01:57:59;;;;;;;40.10;14.48;;;;;;;-5.41;100.00;97553.78;4311661;33;20041;-73
2021/12/29 02:00:29;;;;;;;34.70;17.25;;;;;;;-5.41;100.00;97538.03;4304861;33;20515;-73
2021/12/29 02:02:56;;;;;;;34.67;15.45;;;;;;;-5.54;100.00;97552.59;4298128;33;20067;-73
2021/12/29 02:05:22;;;;;;;28.95;13.75;;;;;;;-5.44;100.00;97554.13;4289018;33;20049;-73
2021/12/29 02:07:49;;;;;;;29.40;12.75;;;;;;;-5.40;100.00;97565.91;4288151;33;20079;-73
2021/12/29 02:10:18;;;;;;;38.42;15.98;;;;;;;-5.44;100.00;97554.13;4291727;33;20037;-74
2021/12/29 02:12:45;;;;;;;36.15;16.12;;;;;;;-5.85;100.00;97506.44;4310485;33;20030;-73
2021/12/29 02:15:12;;;;;;;30.73;14.93;;;;;;;-5.68;100.00;97542.94;4296977;33;20109;-76
2021/12/29 02:17:39;;;;;;;42.40;18.35;;;;;;;-5.55;100.00;97571.97;4296747;33;20041;-73
2021/12/29 02:20:08;;;;;;;28.05;11.15;;;;;;;-5.54;100.00;97570.97;4302638;33;20120;-73
2021/12/29 02:22:47;;;;;;;29.45;11.32;;;;;;;-5.46;100.00;97562.19;4295157;33;20053;-73
2021/12/29 02:27:55;;;;;;;29.00;12.68;;;;;;;-5.49;100.00;97557.31;4297219;33;20060;-73
2021/12/29 02:30:25;;;;;;;33.47;15.55;;;;;;;-5.39;100.00;97568.34;4296457;33;20102;-73
2021/12/29 02:32:57;;;;;;;31.75;14.13;;;;;;;-5.41;100.00;97570.31;4298202;33;20045;-73
2021/12/29 02:35:25;;;;;;;34.95;16.30;;;;;;;-5.65;100.00;97526.84;4294875;33;20431;-73
2021/12/29 02:37:51;;;;;;;30.45;13.90;;;;;;;-5.50;100.00;97572.25;4296871;33;20041;-73
2021/12/29 02:40:18;;;;;;;33.28;15.15;;;;;;;-5.40;100.00;97581.66;4283788;33;20045;-73
2021/12/29 02:42:45;;;;;;;32.78;14.77;;;;;;;-5.37;100.00;97570.78;4296291;33;20099;-73
2021/12/29 02:45:25;;;;;;;43.63;18.98;;;;;;;-5.80;100.00;97494.63;4293984;33;20063;-75
2021/12/29 02:47:52;;;;;;;35.38;13.77;;;;;;;-5.35;100.00;97569.59;4284066;33;20044;-73
2021/12/29 02:50:19;;;;;;;34.20;16.27;;;;;;;-5.38;100.00;97566.53;4297373;33;20469;-73
2021/12/29 02:52:46;;;;;;;33.10;15.85;;;;;;;-5.41;100.00;97569.50;4296730;33;20113;-73
2021/12/29 02:55:14;;;;;;;38.40;15.45;;;;;;;-5.52;100.00;97557.66;4299440;33;20067;-73
2021/12/29 02:57:40;;;;;;;34.88;17.70;;;;;;;-5.79;100.00;97525.91;4286758;33;20071;-73
2021/12/29 03:00:12;;;;;;;44.17;18.67;;;;;;;-5.40;100.00;97576.41;4288713;33;20049;-73
2021/12/29 03:02:39;;;;;;;28.17;13.27;;;;;;;-5.31;100.00;97575.31;4296305;33;20434;-73
2021/12/29 03:05:06;;;;;;;41.33;15.00;;;;;;;-5.27;100.00;97571.28;4294845;33;20083;-76
2021/12/29 03:07:32;;;;;;;30.50;14.20;;;;;;;-5.31;100.00;97575.31;4294473;33;20049;-73
2021/12/29 03:09:59;;;;;;;38.42;18.62;;;;;;;-5.22;100.00;97578.63;4284237;33;20067;-73
2021/12/29 03:12:25;;;;;;;35.53;14.98;;;;;;;-5.45;100.00;97531.53;4293253;33;20062;-73
2021/12/29 03:14:54;;;;;;;17.90;7.65;;;;;;;-5.40;100.00;97544.91;4282622;33;20081;-73
2021/12/29 03:17:21;;;;;;;31.40;13.25;;;;;;;-5.39;100.00;97515.87;4283437;33;20498;-75
2021/12/29 03:19:48;;;;;;;47.72;19.65;;;;;;;-5.15;100.00;97579.53;4296579;33;20044;-73
2021/12/29 03:22:14;;;;;;;38.75;16.37;;;;;;;-5.42;100.00;97537.22;4310158;33;20391;-74
2021/12/29 03:24:42;;;;;;;38.42;16.65;;;;;;;-5.18;100.00;97564.94;4307440;33;20103;-74
2021/12/29 03:27:08;;;;;;;30.58;11.38;;;;;;;-5.48;100.00;97530.09;4296806;33;20389;-73
2021/12/29 03:29:34;;;;;;;43.25;16.67;;;;;;;-5.02;100.00;97569.16;4293473;33;20336;-76
2021/12/29 03:32:07;;;;;;;37.58;15.85;;;;;;;-5.12;100.00;97569.47;4285381;33;20096;-73
2021/12/29 03:34:33;;;;;;;20.92;9.93;;;;;;;-5.08;100.00;97563.84;4282184;33;20071;-74
2021/12/29 03:37:00;;;;;;;24.37;11.65;;;;;;;-5.23;100.00;97543.69;4268252;33;20034;-72
2021/12/29 03:39:27;;;;;;;35.97;14.98;;;;;;;-5.03;100.00;97571.97;4280726;33;20387;-76
2021/12/29 03:41:54;;;;;;;28.40;11.35;;;;;;;-5.32;100.00;97529.06;4281528;33;20347;-73
2021/12/29 03:44:20;;;;;;;37.42;18.40;;;;;;;-5.04;100.00;97567.69;4298874;33;20355;-73
2021/12/29 03:46:47;;;;;;;32.78;13.57;;;;;;;-5.19;100.00;97573.81;4299292;33;20049;-73
2021/12/29 03:49:13;;;;;;;35.75;15.73;;;;;;;-5.04;100.00;97567.69;4296322;33;20053;-73
2021/12/29 03:51:40;;;;;;;38.78;16.02;;;;;;;-5.05;100.00;97573.97;4293728;33;20166;-73
2021/12/29 03:54:07;;;;;;;34.63;12.88;;;;;;;-4.96;100.00;97567.63;4282857;33;20053;-72
2021/12/29 03:56:33;;;;;;;33.55;13.77;;;;;;;-4.99;100.00;97560.09;4302768;33;20354;-73
2021/12/29 03:59:00;;;;;;;31.87;11.65;;;;;;;-4.98;100.00;97569.59;4302788;33;20037;-73
2021/12/29 04:01:27;;;;;;;35.50;16.27;;;;;;;-4.87;100.00;97584.84;4289983;33;20029;-76
2021/12/29 04:03:53;;;;;;;29.33;12.02;;;;;;;-5.21;100.00;97533.81;4294326;33;20053;-73
2021/12/29 04:06:21;;;;;;;30.92;15.18;;;;;;;-5.06;100.00;97564.47;4295764;33;20088;-72
2021/12/29 04:08:48;;;;;;;30.15;13.88;;;;;;;-5.20;100.00;97540.72;4299851;33;20058;-73
2021/12/29 04:11:16;;;;;;;36.20;14.75;;;;;;;-4.95;100.00;97580.53;4309261;33;20062;-72
2021/12/29 04:13:43;;;;;;;33.17;14.57;;;;;;;-4.85;100.00;97584.66;4298975;33;20087;-76
2021/12/29 04:16:16;;;;;;;37.72;15.73;;;;;;;-4.94;100.00;97576.09;4297884;33;20049;-73
2021/12/29 04:19:05;;;;;;;30.70;14.25;;;;;;;-4.88;100.00;97580.62;4294990;33;20390;-73
2021/12/29 04:21:40;;;;;;;18.67;7.35;;;;;;;-4.81;100.00;97596.44;4295066;33;20066;-73
2021/12/29 04:24:08;;;;;;;26.08;10.70;;;;;;;-4.98;100.00;97559.09;4295866;33;20046;-73
2021/12/29 04:26:37;;;;;;;22.33;9.52;;;;;;;-4.68;100.00;97595.75;4295334;33;20390;-73
2021/12/29 04:29:09;;;;;;;33.67;13.10;;;;;;;-4.95;100.00;97553.47;4293805;33;20111;-74
2021/12/29 04:31:36;;;;;;;32.42;15.98;;;;;;;-4.92;100.00;97555.72;4295380;33;20374;-74
2021/12/29 04:34:03;;;;;;;30.27;12.98;;;;;;;-4.79;100.00;97595.22;4292207;33;20453;-74
2021/12/29 04:36:30;;;;;;;32.13;13.80;;;;;;;-4.75;100.00;97596.50;4303233;33;20049;-74
2021/12/29 04:39:01;;;;;;;48.33;17.67;;;;;;;-4.62;100.00;97600.25;4309146;33;20040;-76
2021/12/29 04:41:28;;;;;;;30.75;14.35;;;;;;;-4.69;100.00;97604.62;4296940;33;20186;-74
2021/12/29 04:43:54;;;;;;;35.90;17.20;;;;;;;-4.59;100.00;97595.44;4283418;33;20041;-74
2021/12/29 04:46:28;;;;;;;40.15;17.62;;;;;;;-4.70;100.00;97600.37;4286332;33;20136;-73
2021/12/29 04:49:00;;;;;;;36.75;16.48;;;;;;;-4.80;100.00;97567.38;4295631;33;20038;-74
2021/12/29 04:51:35;;;;;;;36.33;14.75;;;;;;;-4.75;100.00;97557.09;4300126;33;20078;-73
2021/12/29 04:54:06;;;;;;;35.17;14.52;;;;;;;-4.58;100.00;97601.50;4297498;33;20080;-73
2021/12/29 04:56:33;;;;;;;34.13;14.52;;;;;;;-4.50;100.00;97611.91;4286212;33;20041;-73
2021/12/29 04:59:00;;;;;;;35.65;16.23;;;;;;;-4.62;100.00;97610.78;4286403;33;20041;-74
2021/12/29 05:01:26;;;;;;;31.58;12.27;;;;;;;-4.46;100.00;97615.75;4306747;33;20053;-74
2021/12/29 05:03:54;;;;;;;35.05;15.82;;;;;;;-4.50;100.00;97611.91;4312481;33;20053;-75
2021/12/29 05:09:06;;;;;;;41.10;18.15;;;;;;;-4.56;100.00;97610.03;4312365;33;20063;-74
2021/12/29 05:11:32;;;;;;;44.15;17.85;;;;;;;-4.63;100.00;97604.69;4284410;33;20047;-73
2021/12/29 05:13:58;;;;;;;38.13;17.62;;;;;;;-4.89;100.00;97578.19;4302165;33;20037;-74
2021/12/29 05:16:28;;;;;;;32.67;14.80;;;;;;;-4.92;100.00;97587.22;4284141;33;20045;-74
2021/12/29 05:18:56;;;;;;;33.92;13.82;;;;;;;-4.65;100.00;97622.44;4295697;33;20099;-75
2021/12/29 05:21:25;;;;;;;36.78;15.07;;;;;;;-4.59;100.00;97626.97;4297801;33;20079;-73
2021/12/29 05:23:53;;;;;;;26.30;12.57;;;;;;;-4.52;100.00;97627.03;4301848;33;20072;-75
2021/12/29 05:26:20;;;;;;;31.23;12.40;;;;;;;-4.60;100.00;97606.13;4290239;33;20091;-74
2021/12/29 05:28:46;;;;;;;34.97;15.48;;;;;;;-4.77;100.00;97590.63;4281974;33;20371;-73
2021/12/29 05:31:13;;;;;;;31.90;14.93;;;;;;;-4.68;100.00;97601.00;4283980;33;20722;-74
2021/12/29 05:33:40;;;;;;;40.58;16.35;;;;;;;-4.55;100.00;97616.88;4283977;33;20302;-73
2021/12/29 05:36:06;;;;;;;41.80;19.52;;;;;;;-4.80;100.00;97614.63;4283835;33;20037;-73
2021/12/29 05:38:33;;;;;;;33.85;14.60;;;;;;;-4.77;100.00;97619.50;4290555;33;20375;-76
2021/12/29 05:41:00;;;;;;;39.58;14.55;;;;;;;-4.58;100.00;97625.13;4284396;33;20054;-73
2021/12/29 05:43:26;;;;;;;44.38;16.23;;;;;;;-4.56;100.00;97631.03;4295828;33;20021;-73
2021/12/29 05:45:53;;;;;;;34.55;15.20;;;;;;;-4.52;100.00;97632.28;4297502;33;20041;-73
2021/12/29 05:48:19;;;;;;;37.30;15.50;;;;;;;-4.50;100.00;97638.19;4297013;33;20465;-76
2021/12/29 05:50:46;;;;;;;41.55;19.52;;;;;;;-4.78;100.00;97585.56;4310323;33;20041;-74
2021/12/29 05:53:13;;;;;;;38.75;14.80;;;;;;;-4.66;100.00;97620.00;4302287;33;20057;-73
2021/12/29 05:55:43;;;;;;;37.55;16.98;;;;;;;-4.57;100.00;97627.56;4283210;33;20125;-73
2021/12/29 05:58:10;;;;;;;36.35;16.10;;;;;;;-4.66;100.00;97630.50;4298067;33;20353;-73
2021/12/29 06:00:38;;;;;;;42.65;18.27;;;;;;;-4.76;100.00;97600.13;4297075;33;20046;-76
2021/12/29 06:03:04;;;;;;;43.17;17.08;;;;;;;-4.76;100.00;97600.13;4295767;33;20059;-76
2021/12/29 06:05:31;;;;;;;39.30;15.10;;;;;;;-5.12;100.00;97561.59;4297633;33;20832;-74
2021/12/29 06:07:57;;;;;;;34.88;17.12;;;;;;;-4.46;100.00;97642.03;4297510;33;20067;-73
2021/12/29 06:10:24;;;;;;;38.40;17.25;;;;;;;-4.55;100.00;97648.41;4292545;33;20051;-73
2021/12/29 06:12:51;;;;;;;27.87;11.02;;;;;;;-4.76;100.00;97608.00;4296428;33;20473;-73
2021/12/29 06:15:17;;;;;;;37.03;17.45;;;;;;;-4.69;100.00;97602.00;4294398;33;20071;-75
2021/12/29 06:17:44;;;;;;;36.53;17.45;;;;;;;-4.77;100.00;97609.00;4302392;33;20037;-73
2021/12/29 06:20:12;;;;;;;44.00;18.80;;;;;;;-4.47;100.00;97666.69;4284636;33;20038;-73
2021/12/29 06:22:39;;;;;;;36.95;17.27;;;;;;;-4.57;100.00;97660.94;4289771;33;20062;-73
2021/12/29 06:25:09;;;;;;;36.88;16.95;;;;;;;-4.49;100.00;97660.81;4293760;33;20037;-75
2021/12/29 06:27:43;;;;;;;38.45;16.70;;;;;;;-4.81;100.00;97617.44;4284458;33;20080;-74
2021/12/29 06:30:13;;;;;;;39.58;15.77;;;;;;;-4.45;100.00;97658.59;4291876;33;20115;-74
2021/12/29 06:32:40;;;;;;;37.10;17.20;;;;;;;-4.45;100.00;97638.41;4294821;33;20390;-74
2021/12/29 06:35:08;;;;;;;30.73;11.88;;;;;;;-4.73;100.00;97612.06;4293983;33;20048;-74
2021/12/29 06:37:35;;;;;;;27.42;13.23;;;;;;;-4.37;100.00;97642.75;4284418;33;20260;-74
2021/12/29 06:40:03;;;;;;;45.50;20.75;;;;;;;-4.54;100.00;97623.78;4282202;33;20080;-73
2021/12/29 06:42:29;;;;;;;45.90;18.02;;;;;;;-4.51;100.00;97649.69;4304441;33;20053;-74
2021/12/29 06:44:57;;;;;;;38.47;16.08;;;;;;;-4.45;100.00;97654.19;4300992;33;20041;-75
2021/12/29 06:47:24;;;;;;;43.58;16.35;;;;;;;-4.42;100.00;97664.31;4296561;33;20087;-74
2021/12/29 06:49:51;;;;;;;36.17;14.73;;;;;;;-4.39;100.00;97669.22;4295148;33;20036;-73
2021/12/29 06:52:17;;;;;;;41.97;15.93;;;;;;;-4.34;100.00;97670.44;4284192;33;20063;-74
2021/12/29 06:54:46;;;;;;;35.97;16.80;;;;;;;-4.48;100.00;97628.28;4296856;33;20041;-74
2021/12/29 06:57:13;;;;;;;48.67;15.80;;;;;;;-4.54;100.00;97629.03;4297038;33;20111;-76
2021/12/29 06:59:40;;;;;;;39.72;18.30;;;;;;;-4.15;100.00;97680.31;4310713;33;20359;-76
2021/12/29 07:02:06;;;;;;;40.25;14.55;;;;;;;-4.22;100.00;97674.19;4311889;33;20059;-74
2021/12/29 07:04:33;;;;;;;33.72;15.68;;;;;;;-4.21;100.00;97678.47;4292778;33;20493;-73
2021/12/29 07:07:00;;;;;;;32.30;13.07;;;;;;;-4.08;100.00;97681.22;4286404;33;20029;-76
2021/12/29 07:09:26;;;;;;;34.72;14.43;;;;;;;-4.11;100.00;97678.94;4309922;33;20037;-74
2021/12/29 07:11:53;;;;;;;43.00;15.35;;;;;;;-4.08;100.00;97686.47;4302320;33;20063;-74
2021/12/29 07:14:21;;;;;;;43.60;17.92;;;;;;;-4.10;100.00;97685.84;4280780;33;20469;-75
2021/12/29 07:16:49;;;;;;;42.38;15.85;;;;;;;-4.15;100.00;97682.16;4283356;33;20060;-75
2021/12/29 07:19:18;;;;;;;43.92;19.45;;;;;;;-4.06;100.00;97694.97;4278824;33;20115;-74
2021/12/29 07:21:46;;;;;;;37.78;17.27;;;;;;;-4.14;100.00;97696.94;4282638;33;20045;-74
2021/12/29 07:24:13;;;;;;;43.70;19.95;;;;;;;-4.20;100.00;97687.97;4268470;33;20068;-74
2021/12/29 07:26:40;;;;;;;44.30;19.25;;;;;;;-4.19;100.00;97694.84;4282728;33;20071;-74
2021/12/29 07:29:07;;;;;;;48.35;21.33;;;;;;;-4.14;100.00;97694.28;4268326;33;20034;-76
2021/12/29 07:31:34;;;;;;;47.58;22.33;;;;;;;-4.23;100.00;97694.44;4288819;33;20055;-74
2021/12/29 07:34:01;;;;;;;41.45;16.55;;;;;;;-4.26;100.00;97701.84;4300313;33;20044;-73
2021/12/29 07:36:27;;;;;;;42.88;16.50;;;;;;;-4.17;100.00;97703.34;4306208;33;20067;-73
2021/12/29 07:38:54;;;;;;;50.08;20.42;;;;;;;-4.43;100.00;97673.19;4294883;33;20341;-74
2021/12/29 07:41:20;;;;;;;42.13;18.73;;;;;;;-4.15;100.00;97706.59;4294035;33;20053;-77
2021/12/29 07:43:50;;;;;;;45.58;21.00;;;;;;;-4.24;100.00;97705.13;4304848;33;20056;-73
2021/12/29 07:46:18;;;;;;;41.20;19.30;;;;;;;-4.51;100.00;97673.31;4296678;33;20435;-73
2021/12/29 07:48:44;;;;;;;51.10;22.48;;;;;;;-4.27;100.00;97708.13;4296092;33;20075;-73
2021/12/29 07:51:11;;;;;;;56.63;21.08;;;;;;;-4.25;100.00;97706.13;4297368;33;20029;-76
2021/12/29 07:53:38;;;;;;;43.22;20.17;;;;;;;-4.21;100.00;97713.44;4308674;33;20041;-74
2021/12/29 07:56:06;;;;;;;43.33;17.40;;;;;;;-4.18;100.00;97706.97;4303294;33;20152;-74
2021/12/29 07:58:36;;;;;;;47.97;21.15;;;;;;;-4.11;100.00;97722.84;4304271;33;20443;-75
2021/12/29 08:01:03;;;;;;;49.50;20.08;;;;;;;-4.43;100.00;97683.72;4283795;33;20441;-73
2021/12/29 08:03:30;;;;;;;57.50;19.77;;;;;;;-4.11;100.00;97718.38;4279926;33;20355;-74
2021/12/29 08:05:56;;;;;;;54.97;21.02;;;;;;;-4.25;100.00;97685.09;4283835;33;20079;-74
2021/12/29 08:08:23;;;;;;;52.25;24.90;;;;;;;-3.99;100.00;97720.50;4281972;33;20042;-73
2021/12/29 08:10:50;;;;;;;40.38;17.12;;;;;;;-4.08;100.00;97706.69;4280222;33;20059;-74
2021/12/29 08:13:16;;;;;;;52.85;21.35;;;;;;;-3.91;100.00;97723.84;4284890;33;21068;-75
2021/12/29 08:15:43;;;;;;;41.42;17.40;;;;;;;-3.93;100.00;97732.91;4289532;33;20075;-74
2021/12/29 08:18:10;;;;;;;44.05;18.27;;;;;;;-4.02;100.00;97738.31;4284992;33;20104;-73
2021/12/29 08:20:36;;;;;;;39.88;18.73;;;;;;;-4.05;100.00;97743.94;4293058;33;20171;-73
2021/12/29 08:23:04;;;;;;;54.95;24.55;;;;;;;-3.98;100.00;97756.34;4295875;33;20408;-74
2021/12/29 08:25:32;;;;;;;43.00;18.77;;;;;;;-4.03;100.00;97752.44;4302186;33;20371;-75
2021/12/29 08:27:59;;;;;;;43.65;17.85;;;;;;;-4.17;100.00;97727.03;4285769;33;20071;-73
2021/12/29 08:30:26;;;;;;;53.03;20.98;;;;;;;-4.16;100.00;97715.50;4293768;33;20029;-74
2021/12/29 08:32:53;;;;;;;48.15;21.30;;;;;;;-3.87;100.00;97755.81;4286074;33;20049;-76
2021/12/29 08:35:20;;;;;;;52.62;22.85;;;;;;;-3.99;100.00;97754.69;4310029;33;20062;-73
2021/12/29 08:37:48;;;;;;;60.12;21.77;;;;;;;-4.43;100.00;97696.84;4292273;33;20091;-74
2021/12/29 08:40:15;;;;;;;51.08;22.08;;;;;;;-4.20;100.00;97716.88;4305166;33;20366;-73
2021/12/29 08:42:43;;;;;;;48.53;22.90;;;;;;;-3.96;100.00;97763.00;4298695;33;20080;-74
2021/12/29 08:45:13;;;;;;;56.60;24.42;;;;;;;-3.99;100.00;97767.84;4299095;33;20125;-73
2021/12/29 08:47:41;;;;;;;53.42;21.42;;;;;;;-3.96;100.00;97783.25;4307718;33;20473;-77
2021/12/29 08:50:10;;;;;;;55.00;23.08;;;;;;;-4.22;100.00;97738.09;4303362;33;20036;-72
2021/12/29 08:52:38;;;;;;;58.05;24.17;;;;;;;-4.16;100.00;97741.81;4301513;33;20036;-75
2021/12/29 08:55:07;;;;;;;52.67;24.95;;;;;;;-3.94;100.00;97786.50;4297630;33;20041;-73
2021/12/29 08:57:33;;;;;;;51.55;23.10;;;;;;;-3.91;100.00;97784.31;4286235;33;20083;-76
2021/12/29 09:00:00;;;;;;;57.53;23.92;;;;;;;-3.93;100.00;97772.34;4309310;33;20045;-73
2021/12/29 09:02:27;;;;;;;53.03;22.37;;;;;;;-4.10;100.00;97734.97;4292311;33;20048;-74
2021/12/29 09:04:53;;;;;;;49.17;21.27;;;;;;;-4.12;100.00;97731.72;4300433;33;20086;-73
2021/12/29 09:07:20;;;;;;;60.15;25.50;;;;;;;-3.88;100.00;97775.22;4298130;33;20440;-74
2021/12/29 09:09:47;;;;;;;57.83;22.55;;;;;;;-3.75;100.00;97778.00;4297984;33;20103;-75
2021/12/29 09:12:13;;;;;;;53.87;23.85;;;;;;;-3.79;100.00;97766.22;4303678;33;20168;-74
2021/12/29 09:14:39;;;;;;;54.20;22.17;;;;;;;-3.73;100.00;97757.56;4312989;33;20066;-73
2021/12/29 09:17:13;;;;;;;61.28;26.10;;;;;;;-3.70;100.00;97762.47;4311722;33;20070;-75
2021/12/29 09:19:41;;;;;;;70.85;29.80;;;;;;;-3.88;100.00;97717.38;4293987;33;20063;-73
2021/12/29 09:22:15;;;;;;;51.53;20.65;;;;;;;-3.95;100.00;97711.25;4280800;33;20055;-76
2021/12/29 09:24:43;;;;;;;61.05;25.10;;;;;;;-3.76;100.00;97721.13;4298541;33;20149;-74
2021/12/29 09:27:10;;;;;;;56.83;22.52;;;;;;;-3.57;100.00;97750.44;4300318;33;20046;-75
2021/12/29 09:29:36;;;;;;;61.40;24.52;;;;;;;-3.43;100.00;97756.59;4274423;33;20054;-75
2021/12/29 09:32:04;;;;;;;60.47;25.67;;;;;;;-4.15;100.00;97630.37;4292996;33;20061;-75
2021/12/29 09:34:35;;;;;;;62.78;23.05;;;;;;;-3.53;100.00;97752.47;4285357;33;20025;-73
2021/12/29 09:37:03;;;;;;;50.97;22.15;;;;;;;-3.42;100.00;97774.81;4309747;33;20041;-74
2021/12/29 09:39:31;;;;;;;64.40;23.50;;;;;;;-3.49;100.00;97780.03;4296501;33;20066;-75
2021/12/29 09:41:57;;;;;;;60.63;24.67;;;;;;;-3.57;100.00;97779.38;4288402;33;20454;-73
2021/12/29 09:44:24;;;;;;;63.47;27.60;;;;;;;-3.47;100.00;97787.75;4283844;33;20078;-74
2021/12/29 09:46:54;;;;;;;63.25;23.20;;;;;;;-3.70;100.00;97751.94;4283590;33;20054;-74
2021/12/29 09:49:22;;;;;;;71.47;25.60;;;;;;;-3.60;100.00;97782.37;4283420;33;20084;-74
2021/12/29 09:51:49;;;;;;;57.58;24.92;;;;;;;-4.00;100.00;97732.84;4283762;33;20078;-76
2021/12/29 09:54:16;;;;;;;68.80;24.17;;;;;;;-3.49;100.00;97808.19;4289225;33;20363;-74
2021/12/29 09:56:43;;;;;;;55.92;23.50;;;;;;;-3.52;100.00;97803.28;4283385;33;20021;-78
2021/12/29 09:59:10;;;;;;;66.55;23.55;;;;;;;-3.56;100.00;97804.66;4297703;33;20044;-73
2021/12/29 10:01:36;;;;;;;77.37;29.50;;;;;;;-3.37;100.00;97793.47;4286161;33;20037;-74
2021/12/29 10:04:04;;;;;;;69.85;27.55;;;;;;;-3.51;100.00;97802.28;4283658;33;20092;-76
2021/12/29 10:06:31;;;;;;;66.85;29.65;;;;;;;-3.72;100.00;97753.94;4296725;33;20033;-73
2021/12/29 10:09:12;;;;;;;71.45;25.30;;;;;;;-3.47;100.00;97798.28;4280964;33;20041;-74
2021/12/29 10:11:40;;;;;;;61.92;25.27;;;;;;;-3.35;100.00;97799.38;4283006;33;20037;-74
2021/12/29 10:14:09;;;;;;;74.75;27.13;;;;;;;-3.52;100.00;97790.13;4280609;33;20114;-73
2021/12/29 10:16:36;;;;;;;61.53;23.10;;;;;;;-3.51;100.00;97786.47;4292579;33;20389;-74
2021/12/29 10:19:09;;;;;;;54.92;22.13;;;;;;;-3.34;100.00;97794.94;4291697;33;20093;-73
2021/12/29 10:21:41;;;;;;;67.93;28.20;;;;;;;-3.30;100.00;97791.72;4281413;33;20382;-74
2021/12/29 10:24:09;;;;;;;76.30;35.20;;;;;;;-3.55;100.00;97758.94;4294152;33;20063;-74
2021/12/29 10:26:38;;;;;;;59.65;23.05;;;;;;;-3.56;100.00;97778.34;4297796;33;20037;-73
2021/12/29 10:29:11;;;;;;;74.35;27.48;;;;;;;-3.40;100.00;97788.59;4281801;33;20055;-73
2021/12/29 10:31:48;;;;;;;73.72;29.83;;;;;;;-3.45;100.00;97780.47;4281851;33;20033;-73
2021/12/29 10:34:19;;;;;;;75.57;26.30;;;;;;;-3.23;100.00;97790.97;4264378;33;20443;-73
2021/12/29 10:36:55;;;;;;;69.80;30.12;;;;;;;-3.45;100.00;97753.34;4287569;33;20387;-73
2021/12/29 10:39:24;;;;;;;68.12;28.73;;;;;;;-3.22;100.00;97800.47;4277947;33;20045;-73
2021/12/29 10:41:58;;;;;;;86.50;29.83;;;;;;;-3.37;100.00;97798.75;4294321;33;20077;-74
2021/12/29 10:44:26;;;;;;;75.80;28.17;;;;;;;-3.31;100.00;97803.25;4293588;33;20083;-73
2021/12/29 10:46:56;;;;;;;86.57;34.55;;;;;;;-3.23;100.00;97804.94;4296027;33;20093;-74
2021/12/29 10:49:25;;;;;;;84.65;31.08;;;;;;;-3.31;100.00;97808.50;4301674;33;20475;-76
2021/12/29 10:51:52;;;;;;;82.68;33.13;;;;;;;-3.52;100.00;97772.53;4297771;33;20119;-73
2021/12/29 10:54:24;;;;;;;79.55;29.17;;;;;;;-3.21;100.00;97807.38;4286809;33;20071;-73
2021/12/29 10:57:03;;;;;;;88.32;37.33;;;;;;;-3.31;100.00;97765.59;4295775;33;20087;-72
2021/12/29 10:59:35;;;;;;;75.53;29.15;;;;;;;-3.12;100.00;97800.97;4290952;33;20034;-73
2021/12/29 11:02:04;;;;;;;85.43;31.63;;;;;;;-3.09;100.00;97795.31;4280551;33;20036;-73
2021/12/29 11:04:32;;;;;;;96.18;37.20;;;;;;;-3.29;100.00;97759.13;4288053;33;20055;-73
2021/12/29 11:07:01;;;;;;;78.32;31.12;;;;;;;-3.12;100.00;97791.22;4303008;33;20036;-75
2021/12/29 11:09:32;;;;;;;74.65;30.23;;;;;;;-3.09;100.00;97797.94;4295828;33;20046;-73
2021/12/29 11:12:08;;;;;;;88.30;32.53;;;;;;;-3.01;100.00;97791.72;4292532;33;20066;-73
2021/12/29 11:14:37;;;;;;;79.00;29.87;;;;;;;-2.94;100.00;97801.28;4282680;33;20143;-73
2021/12/29 11:17:11;;;;;;;77.82;30.15;;;;;;;-2.96;100.00;97792.75;4286062;33;20394;-75
2021/12/29 11:19:43;;;;;;;79.93;27.50;;;;;;;-2.79;100.00;97800.38;4293108;33;20052;-73